Create Custom Reports and Graphics: Custom Report

Bell Hill-West

Current Conditions

11/28/22 3:15 AM (-08:00)
Updated Every 15 Minutes
WindChill 33.1 °F
Temp 35.4 °F   4.6
RH 90 %   2
Dew Pt 32.9 °F   4.0
Wet Bulb 34.4 °F   4.4
Wind Dir S | 173 °
Wind Spd 3.1 mph   0.4
Wind Gust 6.1 mph   2.7
Solar Rad 0 W/m2   0
BatVolt 12.7 V   0.0

Today & Yesterday

Bell Hill-West

11/28/22 3:15 AM (-08:00)
Updated Every 15 Minutes
Daily Max Temp 41.3 °F   8.2
Time of Max Temp 0036
Daily Min Temp 35.2 °F   5.2
Time of Min Temp 0304
Daily Max Wind 6.1 mph   0.7
Time of Max Wind 0242
Max Wind Dir S | 174 °
Daily Rain 0.00 In
Daily ETo 0.000 in   0.000
Yest MaxT 65.3 °F
Yest MinT 28.1 °F
Yest MaxGst 11.8 mph
Yest Precip 0.00 In
Yest ETo 0.05 In

Last 48 Hours

Bell Hill-West

Hourly Data | America/Los_Angeles
as of 11/28/22 3:16 AM PST
Date & Time Temp (°F) WindChill (°F) RH (%) Dew Pt (°F) Wet Bulb (°F) Wind Dir (°) Wind Spd (mph) Wind Gust (mph) Wind Gst Dir (°) Solar Rad (W/m2) Latest Rain (In) Daily Rain (In) Daily Min Temp (°F) Daily Max Temp (°F) Daily ETo (in)
11/28/22 - 0300 35.9 33.6 88 32.6 34.6 S | 178 3.1 6.1 S | 174 0 0.00 0.00 35.2 41.3 0.000
11/28/22 - 0200 36.7 - 87 33.2 35.3 S | 173 2.1 5.4 SSW | 197 0 0.00 0.00 35.7 41.3 0.000
11/28/22 - 0100 40.0 - 80 34.4 37.7 S | 174 0.8 3.8 SW | 215 0 0.00 0.00 37.5 41.3 0.000
11/28/22 - 0000 40.2 - 79 34.3 37.8 S | 171 1.7 4.4 S | 186 0 0.00 0.00 28.1 65.3 0.053
11/27/22 - 2300 39.3 - 80 33.8 37.0 SSE | 157 0.9 4.1 S | 188 0 0.00 0.00 28.1 65.3 0.053
11/27/22 - 2200 38.4 - 80 32.7 36.1 S | 178 1.8 4.1 S | 174 0 0.00 0.00 28.1 65.3 0.053
11/27/22 - 2100 39.1 - 77 32.7 36.5 S | 190 2.5 4.8 SSW | 199 0 0.00 0.00 28.1 65.3 0.053
11/27/22 - 2000 40.3 - 75 32.9 37.3 S | 185 2.1 4.4 SSW | 192 0 0.00 0.00 28.1 65.3 0.053
11/27/22 - 1900 42.5 - 70 33.3 38.6 S | 188 2.2 4.4 SSW | 206 0 0.00 0.00 28.1 65.3 0.053
11/27/22 - 1800 48.8 - 58 34.4 42.4 S | 182 1.5 4.1 S | 178 0 0.00 0.00 28.1 65.3 0.053
11/27/22 - 1700 59.2 - 38 33.7 46.9 SW | 227 1.7 6.8 SW | 230 29 0.00 0.00 28.1 65.3 0.053
11/27/22 - 1600 64.6 - 28 30.7 48.0 NW | 307 1.5 7.1 N | 1 165 0.00 0.00 28.1 65.3 0.053
11/27/22 - 1500 64.8 - 30 33.0 48.8 SW | 225 3.8 10.1 W | 259 316 0.00 0.00 28.1 65.3 0.051
11/27/22 - 1400 62.0 - 37 35.3 48.6 NE | 36 1.7 11.8 WSW | 248 427 0.00 0.00 28.1 64.7 0.043
11/27/22 - 1300 58.4 - 44 36.9 47.8 N | 7 2.7 7.1 N | 8 487 0.00 0.00 28.1 59.4 0.034
11/27/22 - 1200 55.9 - 46 35.4 46.1 NNW | 347 2.0 6.1 N | 7 490 0.00 0.00 28.1 57.5 0.023
11/27/22 - 1100 51.8 - 56 36.6 44.7 N | 355 1.0 4.4 NNE | 24 418 0.00 0.00 28.1 54.4 0.013
11/27/22 - 1000 45.9 - 70 36.5 41.8 S | 188 0.2 2.7 S | 180 330 0.00 0.00 28.1 49.2 0.006
11/27/22 - 0900 35.7 - 95 34.2 35.1 S | 171 0.9 4.4 N | 0 140 0.00 0.00 28.1 42.0 0.001
11/27/22 - 0800 29.3 - 99 29.0 29.1 S | 179 3.0 4.8 S | 180 14 0.00 0.00 28.1 33.1 0.000
11/27/22 - 0700 28.8 - 98 28.2 28.4 S | 177 2.8 4.4 S | 182 0 0.00 0.00 28.1 33.1 0.000
11/27/22 - 0600 29.3 - 96 28.4 28.9 S | 176 2.2 4.4 S | 181 0 0.00 0.00 28.7 33.1 0.000
11/27/22 - 0500 29.7 - 94 28.2 29.1 S | 181 1.7 4.1 S | 189 0 0.00 0.00 29.1 33.1 0.000
11/27/22 - 0400 30.8 - 93 29.1 30.1 S | 186 3.0 4.1 S | 174 0 0.00 0.00 29.9 33.1 0.000
11/27/22 - 0300 30.8 27.4 93 29.0 30.1 S | 183 3.4 5.4 S | 184 0 0.00 0.00 29.9 33.1 0.000
11/27/22 - 0200 30.8 27.8 92 28.6 29.9 S | 176 3.1 4.4 S | 179 0 0.00 0.00 29.9 33.1 0.000
11/27/22 - 0100 31.7 - 88 28.7 30.5 S | 179 0.8 3.8 S | 185 0 0.00 0.00 30.1 33.1 0.000
11/27/22 - 0000 33.4 - 87 29.8 32.0 S | 182 2.9 4.8 S | 182 0 0.00 0.00 32.6 65.6 0.058
11/26/22 - 2300 34.5 31.8 84 30.2 32.8 S | 178 3.3 5.1 S | 173 0 0.00 0.00 33.6 65.6 0.058
11/26/22 - 2200 36.8 - 80 31.1 34.5 S | 181 1.7 4.1 SSW | 200 0 0.00 0.00 33.8 65.6 0.058
11/26/22 - 2100 37.9 35.5 76 31.1 35.2 S | 184 3.4 4.8 S | 179 0 0.00 0.00 33.8 65.6 0.058
11/26/22 - 2000 40.5 38.9 71 31.8 36.9 S | 189 3.0 5.1 S | 178 0 0.00 0.00 33.8 65.6 0.058
11/26/22 - 1900 42.3 40.7 68 32.5 38.2 S | 183 3.3 5.1 S | 191 0 0.00 0.00 33.8 65.6 0.058
11/26/22 - 1800 47.7 - 59 34.0 41.7 S | 183 2.7 4.8 S | 190 0 0.00 0.00 33.8 65.6 0.058
11/26/22 - 1700 58.7 - 39 33.1 46.4 SSW | 192 1.5 3.8 S | 186 35 0.00 0.00 33.8 65.6 0.058
11/26/22 - 1600 65.1 - 27 30.2 48.1 NNE | 24 2.1 5.1 NE | 37 185 0.00 0.00 33.8 65.6 0.058
11/26/22 - 1500 64.8 - 28 30.7 48.1 NNE | 30 1.7 5.8 NE | 37 326 0.00 0.00 33.8 65.6 0.054
11/26/22 - 1400 63.8 - 29 31.2 47.9 NNE | 25 2.3 6.8 NE | 48 433 0.00 0.00 33.8 64.6 0.047
11/26/22 - 1300 62.0 - 32 32.1 47.5 NE | 43 2.1 6.4 NNE | 21 488 0.00 0.00 33.8 63.4 0.037
11/26/22 - 1200 58.7 - 39 33.8 46.7 NNE | 24 2.6 6.4 NE | 48 490 0.00 0.00 33.8 60.3 0.027
11/26/22 - 1100 56.2 - 40 32.5 45.2 N | 359 3.6 6.8 NNE | 13 436 0.00 0.00 33.8 57.4 0.016
11/26/22 - 1000 52.3 - 46 32.2 43.2 SSW | 197 0.5 3.4 S | 176 331 0.00 0.00 33.8 55.8 0.007
11/26/22 - 0900 41.1 - 73 32.9 37.7 S | 186 1.3 3.4 S | 187 132 0.00 0.00 33.8 47.4 0.001
11/26/22 - 0800 35.4 - 83 30.8 33.6 S | 179 1.0 3.4 S | 178 13 0.00 0.00 33.8 40.5 0.000
11/26/22 - 0700 39.2 - 76 32.2 36.3 S | 182 2.5 4.4 SSE | 166 0 0.00 0.00 33.8 40.5 0.000
11/26/22 - 0600 40.0 - 74 32.4 36.9 S | 184 0.5 2.7 S | 176 0 0.00 0.00 33.8 40.5 0.000
11/26/22 - 0500 40.0 - 73 32.0 36.8 S | 181 1.6 3.4 SW | 219 0 0.00 0.00 33.8 40.5 0.000
11/26/22 - 0400 39.9 - 70 31.0 36.3 S | 183 1.0 3.4 S | 169 0 0.00 0.00 33.8 40.5 0.000
11/26/22 - 0300 38.4 - 71 29.8 35.0 SSW | 195 2.9 4.4 S | 184 0 0.00 0.00 33.8 39.4 0.000
Max 65.1 40.7 99 36.9 48.8 - 3.8 11.8 - 490 0.00 0.00 37.5 65.6 0.058
Avg 44.3 33.7 67 32.1 38.7 - 2.1 5.0 - 116 0.00 - - - -
Min 28.8 27.4 27 28.2 28.4 - 0.2 2.7 - 0 0.00 0.00 28.1 33.1 0.000
Total - - - - - - - - - - 0.00 - - - -

Last 30 Days

Bell Hill-West

Daily Data | America/Los_Angeles
as of 11/28/22 3:16 AM PST
Date Daily Max Temp (°F) Time of Max Temp Daily Min Temp (°F) Time of Min Temp Daily Rain (In) Month Precip (In) Season Precip (In) Wind Spd (mph) Daily Max Wind (mph) Time of Max Wind Max Wind Dir (°) Daily ETo (in) 7 Day ETo (in) Daily Solar Rad (Cal/cm2) Dew Pt (°F) Max RH (%) Min RH (%) Hrs 70-85F (hrs) Hrs > 95F (hrs) Powdery Mildew Stress (pts) GDDs (DL) GDDs (Mx/Mn) Seas GDDs (DL) Seas GDDs (Smpl) Hrs <= 32F (hrs) Hrs <= 28F (hrs) Chilling <=45F (hrs) Chill Hrs 32-45F (hrs) Utah Chilling (Units) Chilling <=45F Seas (hrs) Chill Hrs 32-45 Seas (hrs) Utah Chilling Seas (Units) Degree Hrs (hrs) Max 1 Min Rain (In) Max 1 Min Rain Time Max 15 Min Rain (In) Max 15 Min Precip Time Max 60 Min Rain (In) Max 60 Min Rain Time MinBV Day (V)
11/27/22 65.3 1452 28.1 0622 0.00 1.90 3.12 2.0 11.8 1357 WSW | 248 0.053 0.42 242 32.3 100 25 0.00 0.00 - 2.8 0.0 - - 7.7 0.0 15.2 7.5 6.5 392 267 119 0.0 - - - - - - 12.5
11/26/22 65.6 1443 32.6 2357 0.00 1.90 3.12 2.3 6.8 1045 NNE | 13 0.058 0.42 247 31.4 89 26 0.00 0.00 - 3.4 0.0 - - 0.0 0.0 14.8 14.8 0.0 376 260 114 0.1 - - - - - - 12.5
11/25/22 68.1 1335 30.9 0558 0.00 1.90 3.12 3.2 14.5 1343 SSW | 212 0.071 0.43 237 27.1 82 14 0.00 0.00 - 4.0 0.0 - - 1.0 0.0 14.9 14.0 1.5 362 245 108 5.8 - - - - - - 12.5
11/24/22 72.4 1357 28.4 0608 0.00 1.90 3.12 2.7 11.8 1500 SSE | 153 0.069 0.43 258 25.2 89 11 2.99 0.00 - 5.0 0.4 - - 5.9 0.0 13.9 8.0 1.0 347 231 108 23.1 - - - - - - 12.5
11/23/22 68.2 1610 30.3 0728 0.00 1.90 3.12 2.4 6.4 1117 NNE | 33 0.059 0.42 256 34.9 100 23 0.00 0.00 - 3.7 0.0 - - 2.7 0.0 14.7 12.0 1.5 333 223 108 5.0 - - - - - - 12.5
11/22/22 68.3 1438 28.7 0615 0.00 1.90 3.12 2.2 11.5 1443 WSW | 242 0.051 0.43 219 33.5 95 32 0.00 0.00 - 3.2 0.0 - - 7.0 0.0 14.0 7.0 5.5 318 211 106 2.0 - - - - - - 12.5
11/21/22 63.5 1408 24.4 0708 0.00 1.90 3.12 2.5 7.4 1221 N | 10 0.056 0.44 263 26.3 94 15 0.00 0.00 - 2.1 0.0 - - 8.4 7.3 16.1 7.6 0.0 304 204 102 0.0 - - - - - - 12.5
11/20/22 61.5 1525 22.8 0707 0.00 1.90 3.12 2.6 6.4 1139 NNE | 33 0.057 0.45 266 23.7 90 19 0.00 0.00 - 1.7 0.0 - - 11.8 8.0 17.0 5.2 0.0 288 196 97 0.0 - - - - - - 12.5
11/19/22 61.3 1419 24.2 0650 0.00 1.90 3.12 2.7 7.8 1332 NNE | 19 0.064 0.45 270 21.8 83 17 0.00 0.00 - 1.8 0.0 - - 8.8 4.6 16.1 7.3 0.0 271 191 97 0.0 - - - - - - 12.5
11/18/22 66.7 1418 30.3 0703 0.00 1.90 3.12 2.1 13.5 1447 NNE | 25 0.070 0.45 276 26.0 99 11 0.00 0.00 - 3.4 0.0 - - 1.4 0.0 12.0 10.6 2.0 255 184 97 0.9 - - - - - - 12.6
11/17/22 66.4 1451 28.3 0336 0.00 1.90 3.12 2.5 10.5 1341 SSW | 210 0.067 0.43 277 29.7 93 19 0.00 0.00 - 3.0 0.0 - - 7.1 0.0 15.5 8.5 6.5 243 174 96 0.9 - - - - - - 12.5
11/16/22 66.9 1517 25.0 0647 0.00 1.90 3.12 2.4 6.4 1103 NNW | 340 0.063 0.41 284 26.5 93 15 0.00 0.00 - 3.0 0.0 - - 8.3 5.0 15.7 7.4 0.0 227 165 90 1.8 - - - - - - 12.4
11/15/22 65.5 1540 26.3 0707 0.00 1.90 3.12 2.4 10.1 1258 NNE | 25 0.065 0.39 287 27.4 99 16 0.00 0.00 - 2.9 0.0 - - 9.3 5.8 16.2 6.8 0.0 212 158 90 0.0 - - - - - - 12.5
11/14/22 57.9 1445 26.1 0619 0.00 1.90 3.12 2.6 12.5 1220 ENE | 74 0.065 0.35 288 29.4 100 30 0.00 0.00 - 1.5 0.0 - - 11.1 4.6 16.3 5.2 0.0 196 151 90 0.0 - - - - - - 12.5
11/13/22 59.6 1540 27.1 0620 0.00 1.90 3.12 2.1 8.8 1328 N | 8 0.061 0.32 293 31.2 100 25 0.00 0.00 - 1.3 0.0 - - 10.1 1.0 16.9 6.8 0.0 179 146 90 0.0 - - - - - - 12.5
11/12/22 55.4 1318 31.5 0706 0.01 1.90 3.12 2.4 16.5 1225 WNW | 283 0.057 0.32 244 36.4 100 37 0.00 0.00 - 0.7 0.0 - - 0.4 0.0 14.1 13.7 0.0 162 139 90 0.0 0.01 0646 0.01 0700 0.01 0745 12.6
11/11/22 58.0 1539 29.9 0650 0.00 1.89 3.11 1.8 8.8 1448 NW | 306 0.054 0.30 258 34.5 100 33 0.00 0.00 - 1.2 0.0 - - 7.3 0.0 15.6 8.4 7.0 148 125 84 0.0 - - - - - - 12.6
11/10/22 54.8 1521 27.7 0630 0.01 1.89 3.11 1.9 7.8 1412 NNE | 16 0.047 0.31 243 34.0 100 42 0.00 0.00 - 0.6 0.0 - - 8.0 0.1 18.6 10.6 0.0 133 117 78 0.0 0.01 0824 0.01 0838 0.01 0923 12.6
11/9/22 53.8 1604 32.1 2334 0.00 1.88 3.10 1.9 10.1 1433 SW | 234 0.044 0.34 212 36.5 100 51 0.00 0.00 - 0.3 0.0 - - 0.0 0.0 15.3 15.3 0.0 114 106 72 0.0 - - - - - - 12.4
11/8/22 46.0 1439 38.4 0611 0.86 1.88 3.10 1.5 11.5 1427 SSW | 207 0.020 0.35 99 40.2 100 80 0.00 0.00 - 0.0 0.0 - - 0.0 0.0 23.2 23.2 24.0 99 91 72 0.0 0.01 1642 0.07 0355 0.23 0354 12.4
11/7/22 49.2 1130 33.8 0623 0.32 1.02 2.24 2.7 15.8 1300 WSW | 254 0.032 0.38 170 38.5 100 66 0.00 0.00 - 0.0 0.0 - - 0.0 0.0 21.0 21.0 22.5 76 68 50 0.0 0.01 2359 0.06 1321 0.11 2343 12.5
11/6/22 56.9 1252 38.0 0716 0.44 0.70 1.92 4.3 20.2 2116 S | 174 0.064 0.43 252 40.9 100 45 0.00 0.00 - 1.1 0.0 - - 0.0 0.0 8.6 8.6 7.0 55 47 28 0.0 0.01 2349 0.09 2215 0.27 2226 12.6
11/5/22 62.2 1358 47.1 0051 0.03 0.26 1.48 3.4 13.8 1343 S | 187 0.039 0.46 158 50.4 98 75 0.00 0.00 - 4.2 4.6 - - 0.0 0.0 0.0 0.0 2.5 46 38 22 0.0 0.01 1209 0.01 1223 0.02 1226 12.6
11/4/22 64.7 1515 34.8 0107 0.00 0.23 1.45 3.0 14.2 1550 SSW | 208 0.067 0.50 252 43.5 95 52 0.00 0.00 - 5.3 0.0 - - 0.0 0.0 7.9 7.9 0.5 46 38 20 0.0 - - - - - - 12.5
11/3/22 59.0 1629 26.0 0746 0.00 0.23 1.45 2.0 9.1 1346 WNW | 300 0.069 0.51 322 29.4 100 24 0.00 0.00 - 1.3 0.0 - - 7.9 3.5 15.6 7.7 6.0 38 30 20 0.0 - - - - - - 12.6
11/2/22 55.0 1438 31.8 0059 0.02 0.23 1.45 2.4 14.8 1927 WNW | 285 0.056 0.53 256 35.4 100 42 0.00 0.00 - 0.3 0.0 - - 0.0 0.0 15.1 15.1 0.5 22 22 14 0.0 0.01 1510 0.02 1523 0.02 1608 12.6
11/1/22 53.7 1517 34.2 0050 0.21 0.21 1.43 3.7 20.9 0841 SSE | 156 0.050 0.56 222 41.7 100 51 0.00 0.00 - 0.5 0.0 - - 0.0 0.0 7.4 7.4 15.0 7 7 14 0.0 0.01 1038 0.06 1012 0.13 1024 12.6
10/31/22 74.0 1426 39.7 0311 0.00 0.00 1.22 2.3 11.5 1431 SSW | 205 0.083 0.60 276 38.5 90 24 1.00 0.00 0 6.3 6.8 3,371 3,231 0.0 0.0 9.3 9.3 3.5 - - - 22.0 - - - - - - 12.5
10/30/22 76.8 1546 34.2 0726 0.00 0.00 1.22 2.5 11.8 1511 WSW | 251 0.093 0.63 326 36.3 99 15 4.63 0.00 0 7.6 5.5 3,364 3,224 0.0 0.0 10.4 10.4 4.5 - - - 49.0 - - - - - - 12.5
10/29/22 72.2 1447 33.1 0519 0.00 0.00 1.22 2.5 13.8 1443 S | 178 0.085 0.62 303 34.6 88 21 2.03 0.00 0 6.2 2.6 3,357 3,218 0.0 0.0 10.3 10.3 4.5 - - - 22.2 - - - - - - 12.6
Max 76.8 - 47.1 - 0.86 1.90 3.12 4.3 20.9 - - 0.093 0.63 326 50.4 100 80 4.63 0.00 - 7.6 6.8 - - 11.8 8.0 23.2 23.2 24.0 - - - 49.0 0.01 - 0.09 - 0.27 - 12.6
Avg - - - - - - - 2.5 - - - - - - 33.2 - - 0.36 0.00 - 2.6 0.7 - - 4.1 1.3 14.1 9.9 4.1 - - - - - - - - - - -
Min 46.0 - 22.8 - 0.00 0.00 1.22 1.5 6.4 - - 0.020 0.30 99 21.8 82 11 0.00 0.00 - 0.0 0.0 - - 0.0 0.0 0.0 0.0 0.0 - - - 0.0 0.01 - 0.01 - 0.01 - 12.4
Total - - - - - - - - - - - - - - - - - 10.65 0.00 - 78.5 20.0 - - 124.3 39.9 421.7 297.4 122.0 - - - - - - - - - - -

Bell Hill-West Climate Summary

Current Yeaer

Current Year | Showing 1/1/22 - 11/27/22
as of 11/28/22 3:16 AM PST
Temperature (°F) Max Wind Gust (mph) Precip (in) Days
Month Days Avg High Avg Low Max Min Avg Max Total Daily Min Temp < 28 Daily Min Temp < 32 Daily Max Temp > 90 Daily Max Temp > 100 Daily Rain > 0.01 Daily Rain > 0.1
Jan 2022 31 60.2 31.8 68.6 23.8 10.8 26.6 0.39 9 19 0 0 4 1
Feb 2022 28 65.7 28.6 78.2 19.5 11.9 23.2 0.08 13 22 0 0 1 0
Mar 2022 31 67.1 34.9 83.9 26 15.7 24.9 0.58 7 9 0 0 5 3
Apr 2022 30 65.9 37.3 88.5 30.8 17.6 27.2 2 0 1 0 0 6 5
May 2022 31 73.9 41.4 94.4 30.6 17.9 23.9 0.31 0 2 2 0 3 2
Jun 2022 30 84.5 49.1 99.9 38.7 17.7 36 0.38 0 0 9 0 2 2
Jul 2022 31 91.6 54.7 101.5 47.9 15.9 20.9 0 0 0 21 1 0 0
Aug 2022 31 92.6 54.6 101.8 46.4 16 21.2 0.01 0 0 22 2 0 0
Sep 2022 30 86.3 51.3 111.5 44.2 14 20.5 1.21 0 0 9 6 3 2
Oct 2022 31 81.3 42.2 93.2 31.8 12.4 18.8 0 0 1 7 0 0 0
Nov 2022 27 61 30.3 72.4 22.8 11.5 20.9 1.9 9 19 0 0 6 4
Total 331 - - - - - - 6.86 38 73 70 9 30 19
Average 30.1 75.7 41.7 75.7 41.7 14.7 - 0.62 3.5 6.6 6.4 0.8 2.7 1.7
Maximum 31 92.6 54.7 111.5 - - 36 2 13 22 22 6 6 5
Minimum 27 60.2 28.6 - 19.5 - - 0 0 0 0 0 0 0

Bell Hill-West Climate Summary

Last Year

Last Year | Showing 1/1/21 - 12/31/21
as of 11/28/22 3:16 AM PST
Temperature (°F) Max Wind Gust (mph) Precip (in) Days
Month Days Avg High Avg Low Max Min Avg Max Total Daily Min Temp < 28 Daily Min Temp < 32 Daily Max Temp > 90 Daily Max Temp > 100 Daily Rain > 0.01 Daily Rain > 0.1
Jan 2021 31 56.2 33.9 74.9 20.1 13 31.3 3.55 5 12 0 0 13 5
Feb 2021 28 60.7 32.6 72.9 26.7 14.4 24.9 1.79 3 15 0 0 10 5
Mar 2021 31 61 32.2 77.4 26.6 16.5 29.2 1.87 2 17 0 0 6 5
Apr 2021 30 73 36.9 86.1 31.5 17.7 22.9 0.15 0 2 0 0 2 1
May 2021 31 80.7 44.1 101 33.8 17.9 21.2 0.01 0 0 2 1 0 0
Jun 2021 30 88.7 52.3 104.7 37.1 18.2 22.5 0 0 0 14 5 0 0
Jul 2021 31 96.4 57.5 105.9 51 16.7 20.9 0 0 0 29 7 0 0
Aug 2021 31 94.2 54.8 106.1 46.2 16.6 19.2 0 0 0 23 4 0 0
Sep 2021 30 88 49.3 99.3 38.2 15.6 24.2 0.2 0 0 16 0 3 1
Oct 2021 31 70.4 42.7 91.3 30.1 14.2 28.2 8.12 0 1 2 0 10 7
Nov 2021 30 64.5 37.2 73 27.5 8.6 17.8 1.63 1 6 0 0 7 5
Dec 2021 31 51.9 33.7 73.1 26.3 13.7 29.9 6.69 4 13 0 0 16 11
Total 365 - - - - - - 24.01 15 66 86 17 67 40
Average 30.4 73.9 42.3 73.9 42.3 15.3 - 2 1.2 5.5 7.2 1.4 5.6 3.3
Maximum 31 96.4 57.5 106.1 - - 31.3 8.12 5 17 29 7 16 11
Minimum 28 51.9 32.2 - 20.1 - - 0 0 0 0 0 0 0
Calm: 1.0%
Calm: 0.1%